sensor_id;sensor_type;location;lat;lon;timestamp;P1;durP1;ratioP1;P2;durP2;ratioP2
59336;SDS011;45115;52.002;4.686;2023-05-10T00:01:43;40.28;;;20.05;;
59336;SDS011;45115;52.002;4.686;2023-05-10T00:04:09;36.75;;;17.80;;
59336;SDS011;45115;52.002;4.686;2023-05-10T00:06:36;44.95;;;20.88;;
59336;SDS011;45115;52.002;4.686;2023-05-10T00:09:03;41.28;;;19.83;;
59336;SDS011;45115;52.002;4.686;2023-05-10T00:11:29;42.58;;;19.55;;
59336;SDS011;45115;52.002;4.686;2023-05-10T00:13:56;41.00;;;19.75;;
59336;SDS011;45115;52.002;4.686;2023-05-10T00:16:22;47.22;;;21.05;;
59336;SDS011;45115;52.002;4.686;2023-05-10T00:18:50;46.97;;;22.30;;
59336;SDS011;45115;52.002;4.686;2023-05-10T00:21:17;42.55;;;21.27;;
59336;SDS011;45115;52.002;4.686;2023-05-10T00:23:44;49.78;;;22.48;;
59336;SDS011;45115;52.002;4.686;2023-05-10T00:26:10;52.75;;;22.60;;
59336;SDS011;45115;52.002;4.686;2023-05-10T00:28:38;49.88;;;22.42;;
59336;SDS011;45115;52.002;4.686;2023-05-10T00:31:05;42.00;;;21.30;;
59336;SDS011;45115;52.002;4.686;2023-05-10T00:33:31;49.15;;;22.02;;
59336;SDS011;45115;52.002;4.686;2023-05-10T00:35:59;47.60;;;22.15;;
59336;SDS011;45115;52.002;4.686;2023-05-10T00:38:26;44.80;;;21.23;;
59336;SDS011;45115;52.002;4.686;2023-05-10T00:40:53;50.65;;;23.10;;
59336;SDS011;45115;52.002;4.686;2023-05-10T00:43:26;52.17;;;23.70;;
59336;SDS011;45115;52.002;4.686;2023-05-10T00:45:53;54.90;;;26.13;;
59336;SDS011;45115;52.002;4.686;2023-05-10T00:48:20;56.10;;;25.48;;
59336;SDS011;45115;52.002;4.686;2023-05-10T00:50:48;60.58;;;28.50;;
59336;SDS011;45115;52.002;4.686;2023-05-10T00:53:16;59.38;;;26.75;;
59336;SDS011;45115;52.002;4.686;2023-05-10T00:55:43;56.75;;;26.88;;
59336;SDS011;45115;52.002;4.686;2023-05-10T00:58:09;53.85;;;23.80;;
59336;SDS011;45115;52.002;4.686;2023-05-10T01:00:36;54.42;;;24.60;;
59336;SDS011;45115;52.002;4.686;2023-05-10T01:03:04;59.80;;;24.70;;
59336;SDS011;45115;52.002;4.686;2023-05-10T01:05:30;56.65;;;24.90;;
59336;SDS011;45115;52.002;4.686;2023-05-10T01:07:57;55.17;;;25.55;;
59336;SDS011;45115;52.002;4.686;2023-05-10T01:10:25;58.33;;;26.63;;
59336;SDS011;45115;52.002;4.686;2023-05-10T01:12:52;64.43;;;26.80;;
59336;SDS011;45115;52.002;4.686;2023-05-10T01:15:19;62.08;;;28.23;;
59336;SDS011;45115;52.002;4.686;2023-05-10T01:17:47;53.67;;;25.27;;
59336;SDS011;45115;52.002;4.686;2023-05-10T01:20:15;61.88;;;27.05;;
59336;SDS011;45115;52.002;4.686;2023-05-10T01:22:57;63.60;;;27.63;;
59336;SDS011;45115;52.002;4.686;2023-05-10T01:25:54;71.82;;;31.88;;
59336;SDS011;45115;52.002;4.686;2023-05-10T01:29:04;78.20;;;32.13;;
59336;SDS011;45115;52.002;4.686;2023-05-10T01:31:53;64.30;;;27.85;;
59336;SDS011;45115;52.002;4.686;2023-05-10T01:34:32;67.28;;;30.33;;
59336;SDS011;45115;52.002;4.686;2023-05-10T01:37:02;76.70;;;31.85;;
59336;SDS011;45115;52.002;4.686;2023-05-10T01:39:36;68.38;;;29.25;;
59336;SDS011;45115;52.002;4.686;2023-05-10T01:42:09;68.18;;;30.15;;
59336;SDS011;45115;52.002;4.686;2023-05-10T01:44:37;63.67;;;29.10;;
59336;SDS011;45115;52.002;4.686;2023-05-10T01:47:10;67.13;;;29.23;;
59336;SDS011;45115;52.002;4.686;2023-05-10T01:49:41;56.38;;;27.95;;
59336;SDS011;45115;52.002;4.686;2023-05-10T01:52:13;61.15;;;28.10;;
59336;SDS011;45115;52.002;4.686;2023-05-10T01:54:49;60.22;;;26.33;;
59336;SDS011;45115;52.002;4.686;2023-05-10T01:57:22;62.75;;;28.33;;
59336;SDS011;45115;52.002;4.686;2023-05-10T01:59:53;61.17;;;28.35;;
59336;SDS011;45115;52.002;4.686;2023-05-10T02:02:23;63.47;;;30.02;;
59336;SDS011;45115;52.002;4.686;2023-05-10T02:04:51;57.30;;;28.27;;
59336;SDS011;45115;52.002;4.686;2023-05-10T02:07:21;58.35;;;28.77;;
59336;SDS011;45115;52.002;4.686;2023-05-10T02:09:50;64.75;;;29.60;;
59336;SDS011;45115;52.002;4.686;2023-05-10T02:12:17;65.63;;;31.23;;
59336;SDS011;45115;52.002;4.686;2023-05-10T02:14:45;65.38;;;30.63;;
59336;SDS011;45115;52.002;4.686;2023-05-10T02:17:13;63.78;;;30.70;;
59336;SDS011;45115;52.002;4.686;2023-05-10T02:19:42;63.88;;;29.23;;
59336;SDS011;45115;52.002;4.686;2023-05-10T02:22:11;64.22;;;30.50;;
59336;SDS011;45115;52.002;4.686;2023-05-10T02:24:38;61.53;;;29.70;;
59336;SDS011;45115;52.002;4.686;2023-05-10T02:27:06;52.92;;;27.15;;
59336;SDS011;45115;52.002;4.686;2023-05-10T02:29:34;55.22;;;29.45;;
59336;SDS011;45115;52.002;4.686;2023-05-10T02:32:03;61.75;;;27.48;;
59336;SDS011;45115;52.002;4.686;2023-05-10T02:34:30;58.47;;;29.60;;
59336;SDS011;45115;52.002;4.686;2023-05-10T02:36:59;61.25;;;27.75;;
59336;SDS011;45115;52.002;4.686;2023-05-10T02:39:27;55.40;;;29.70;;
59336;SDS011;45115;52.002;4.686;2023-05-10T02:41:56;57.60;;;28.98;;
59336;SDS011;45115;52.002;4.686;2023-05-10T02:44:23;56.85;;;28.90;;
59336;SDS011;45115;52.002;4.686;2023-05-10T02:46:53;58.53;;;30.17;;
59336;SDS011;45115;52.002;4.686;2023-05-10T02:49:21;54.00;;;29.92;;
59336;SDS011;45115;52.002;4.686;2023-05-10T02:51:49;64.10;;;31.42;;
59336;SDS011;45115;52.002;4.686;2023-05-10T02:54:24;67.80;;;30.65;;
59336;SDS011;45115;52.002;4.686;2023-05-10T02:56:56;61.13;;;32.05;;
59336;SDS011;45115;52.002;4.686;2023-05-10T02:59:25;66.07;;;31.02;;
59336;SDS011;45115;52.002;4.686;2023-05-10T03:01:52;61.00;;;31.60;;
59336;SDS011;45115;52.002;4.686;2023-05-10T03:04:19;64.50;;;32.72;;
59336;SDS011;45115;52.002;4.686;2023-05-10T03:06:46;69.22;;;35.22;;
59336;SDS011;45115;52.002;4.686;2023-05-10T03:09:13;65.25;;;35.03;;
59336;SDS011;45115;52.002;4.686;2023-05-10T03:11:46;65.60;;;35.63;;
59336;SDS011;45115;52.002;4.686;2023-05-10T03:14:21;77.53;;;38.35;;
59336;SDS011;45115;52.002;4.686;2023-05-10T03:17:04;70.90;;;38.90;;
59336;SDS011;45115;52.002;4.686;2023-05-10T03:19:38;72.78;;;37.10;;
59336;SDS011;45115;52.002;4.686;2023-05-10T03:22:12;65.35;;;37.42;;
59336;SDS011;45115;52.002;4.686;2023-05-10T03:24:42;69.55;;;37.03;;
59336;SDS011;45115;52.002;4.686;2023-05-10T03:27:12;72.88;;;38.45;;
59336;SDS011;45115;52.002;4.686;2023-05-10T03:29:41;71.63;;;37.20;;
59336;SDS011;45115;52.002;4.686;2023-05-10T03:32:09;81.85;;;37.70;;
59336;SDS011;45115;52.002;4.686;2023-05-10T03:34:40;70.60;;;35.58;;
59336;SDS011;45115;52.002;4.686;2023-05-10T03:37:08;70.82;;;35.10;;
59336;SDS011;45115;52.002;4.686;2023-05-10T03:39:34;67.18;;;33.80;;
59336;SDS011;45115;52.002;4.686;2023-05-10T03:42:02;68.15;;;32.40;;
59336;SDS011;45115;52.002;4.686;2023-05-10T03:44:31;67.13;;;31.80;;
59336;SDS011;45115;52.002;4.686;2023-05-10T03:46:58;68.20;;;33.05;;
59336;SDS011;45115;52.002;4.686;2023-05-10T03:49:25;69.32;;;34.22;;
59336;SDS011;45115;52.002;4.686;2023-05-10T03:51:51;69.57;;;36.25;;
59336;SDS011;45115;52.002;4.686;2023-05-10T03:54:18;69.28;;;35.28;;
59336;SDS011;45115;52.002;4.686;2023-05-10T03:56:45;76.57;;;34.85;;
59336;SDS011;45115;52.002;4.686;2023-05-10T03:59:13;71.25;;;35.72;;
59336;SDS011;45115;52.002;4.686;2023-05-10T04:01:41;70.57;;;35.20;;
59336;SDS011;45115;52.002;4.686;2023-05-10T04:04:08;73.38;;;35.92;;
59336;SDS011;45115;52.002;4.686;2023-05-10T04:06:35;69.65;;;37.33;;
59336;SDS011;45115;52.002;4.686;2023-05-10T04:09:01;71.72;;;35.83;;
59336;SDS011;45115;52.002;4.686;2023-05-10T04:11:29;81.80;;;36.47;;
59336;SDS011;45115;52.002;4.686;2023-05-10T04:13:56;69.25;;;34.88;;
59336;SDS011;45115;52.002;4.686;2023-05-10T04:16:23;67.43;;;34.03;;
59336;SDS011;45115;52.002;4.686;2023-05-10T04:18:51;66.05;;;35.20;;
59336;SDS011;45115;52.002;4.686;2023-05-10T04:21:17;63.38;;;35.97;;
59336;SDS011;45115;52.002;4.686;2023-05-10T04:23:44;65.70;;;36.92;;
59336;SDS011;45115;52.002;4.686;2023-05-10T04:28:57;67.55;;;35.83;;
59336;SDS011;45115;52.002;4.686;2023-05-10T04:31:24;67.65;;;35.50;;
59336;SDS011;45115;52.002;4.686;2023-05-10T04:33:53;71.25;;;36.10;;
59336;SDS011;45115;52.002;4.686;2023-05-10T04:36:20;67.18;;;36.75;;
59336;SDS011;45115;52.002;4.686;2023-05-10T04:38:46;67.55;;;37.00;;
59336;SDS011;45115;52.002;4.686;2023-05-10T04:41:13;59.75;;;33.83;;
59336;SDS011;45115;52.002;4.686;2023-05-10T04:43:39;61.03;;;34.92;;
59336;SDS011;45115;52.002;4.686;2023-05-10T04:46:06;72.00;;;35.78;;
59336;SDS011;45115;52.002;4.686;2023-05-10T04:48:33;70.88;;;38.90;;
59336;SDS011;45115;52.002;4.686;2023-05-10T04:51:01;77.25;;;39.08;;
59336;SDS011;45115;52.002;4.686;2023-05-10T04:53:28;81.97;;;39.05;;
59336;SDS011;45115;52.002;4.686;2023-05-10T04:55:55;73.47;;;36.83;;
59336;SDS011;45115;52.002;4.686;2023-05-10T04:58:22;71.60;;;36.67;;
59336;SDS011;45115;52.002;4.686;2023-05-10T05:00:48;68.15;;;34.67;;
59336;SDS011;45115;52.002;4.686;2023-05-10T05:03:15;64.68;;;33.97;;
59336;SDS011;45115;52.002;4.686;2023-05-10T05:05:43;61.08;;;33.17;;
59336;SDS011;45115;52.002;4.686;2023-05-10T05:08:12;55.35;;;31.05;;
59336;SDS011;45115;52.002;4.686;2023-05-10T05:10:43;52.15;;;30.33;;
59336;SDS011;45115;52.002;4.686;2023-05-10T05:13:10;53.05;;;30.23;;
59336;SDS011;45115;52.002;4.686;2023-05-10T05:15:38;61.67;;;34.47;;
59336;SDS011;45115;52.002;4.686;2023-05-10T05:18:05;62.28;;;34.17;;
59336;SDS011;45115;52.002;4.686;2023-05-10T05:20:32;61.78;;;33.65;;
59336;SDS011;45115;52.002;4.686;2023-05-10T05:22:59;62.10;;;32.63;;
59336;SDS011;45115;52.002;4.686;2023-05-10T05:25:27;55.25;;;31.65;;
59336;SDS011;45115;52.002;4.686;2023-05-10T05:27:54;49.10;;;29.45;;
59336;SDS011;45115;52.002;4.686;2023-05-10T05:30:20;50.55;;;29.45;;
59336;SDS011;45115;52.002;4.686;2023-05-10T05:32:47;54.30;;;28.58;;
59336;SDS011;45115;52.002;4.686;2023-05-10T05:35:14;45.63;;;27.52;;
59336;SDS011;45115;52.002;4.686;2023-05-10T05:37:40;54.28;;;27.75;;
59336;SDS011;45115;52.002;4.686;2023-05-10T05:40:14;49.70;;;25.60;;
59336;SDS011;45115;52.002;4.686;2023-05-10T05:42:57;51.00;;;25.10;;
59336;SDS011;45115;52.002;4.686;2023-05-10T05:45:24;46.70;;;22.60;;
59336;SDS011;45115;52.002;4.686;2023-05-10T05:47:50;39.05;;;20.00;;
59336;SDS011;45115;52.002;4.686;2023-05-10T05:50:17;34.78;;;16.38;;
59336;SDS011;45115;52.002;4.686;2023-05-10T05:52:44;31.60;;;15.43;;
59336;SDS011;45115;52.002;4.686;2023-05-10T05:55:10;33.58;;;13.98;;
59336;SDS011;45115;52.002;4.686;2023-05-10T05:57:37;26.02;;;13.82;;
59336;SDS011;45115;52.002;4.686;2023-05-10T06:00:06;23.00;;;11.43;;
59336;SDS011;45115;52.002;4.686;2023-05-10T06:02:39;22.38;;;10.23;;
59336;SDS011;45115;52.002;4.686;2023-05-10T06:05:06;20.42;;;10.07;;
59336;SDS011;45115;52.002;4.686;2023-05-10T06:07:33;21.90;;;9.93;;
59336;SDS011;45115;52.002;4.686;2023-05-10T06:10:00;25.17;;;11.10;;
59336;SDS011;45115;52.002;4.686;2023-05-10T06:12:28;24.88;;;10.90;;
59336;SDS011;45115;52.002;4.686;2023-05-10T06:14:54;27.50;;;12.02;;
59336;SDS011;45115;52.002;4.686;2023-05-10T06:17:22;23.30;;;10.63;;
59336;SDS011;45115;52.002;4.686;2023-05-10T06:19:49;23.17;;;10.75;;
59336;SDS011;45115;52.002;4.686;2023-05-10T06:22:16;21.40;;;10.02;;
59336;SDS011;45115;52.002;4.686;2023-05-10T06:24:42;19.60;;;8.93;;
59336;SDS011;45115;52.002;4.686;2023-05-10T06:27:09;19.15;;;9.02;;
59336;SDS011;45115;52.002;4.686;2023-05-10T06:29:36;18.83;;;7.55;;
59336;SDS011;45115;52.002;4.686;2023-05-10T06:32:03;18.45;;;8.40;;
59336;SDS011;45115;52.002;4.686;2023-05-10T06:34:31;18.05;;;8.38;;
59336;SDS011;45115;52.002;4.686;2023-05-10T06:36:58;16.42;;;7.40;;
59336;SDS011;45115;52.002;4.686;2023-05-10T06:39:24;15.02;;;7.05;;
59336;SDS011;45115;52.002;4.686;2023-05-10T06:41:51;13.40;;;6.20;;
59336;SDS011;45115;52.002;4.686;2023-05-10T06:44:18;13.68;;;6.22;;
59336;SDS011;45115;52.002;4.686;2023-05-10T06:46:45;13.48;;;6.20;;
59336;SDS011;45115;52.002;4.686;2023-05-10T06:49:11;12.25;;;6.22;;
59336;SDS011;45115;52.002;4.686;2023-05-10T06:51:39;11.95;;;5.97;;
59336;SDS011;45115;52.002;4.686;2023-05-10T06:54:06;12.60;;;6.30;;
59336;SDS011;45115;52.002;4.686;2023-05-10T06:56:34;12.90;;;6.60;;
59336;SDS011;45115;52.002;4.686;2023-05-10T06:59:00;11.80;;;6.25;;
59336;SDS011;45115;52.002;4.686;2023-05-10T07:01:28;11.77;;;5.70;;
59336;SDS011;45115;52.002;4.686;2023-05-10T07:03:54;9.63;;;5.05;;
59336;SDS011;45115;52.002;4.686;2023-05-10T07:06:21;9.35;;;4.32;;
59336;SDS011;45115;52.002;4.686;2023-05-10T07:08:49;9.93;;;4.88;;
59336;SDS011;45115;52.002;4.686;2023-05-10T07:11:16;9.18;;;4.88;;
59336;SDS011;45115;52.002;4.686;2023-05-10T07:14:05;10.93;;;5.13;;
59336;SDS011;45115;52.002;4.686;2023-05-10T07:16:31;10.07;;;4.78;;
59336;SDS011;45115;52.002;4.686;2023-05-10T07:18:58;8.95;;;4.70;;
59336;SDS011;45115;52.002;4.686;2023-05-10T07:21:25;10.65;;;4.85;;
59336;SDS011;45115;52.002;4.686;2023-05-10T07:23:55;8.90;;;4.80;;
59336;SDS011;45115;52.002;4.686;2023-05-10T07:26:21;9.55;;;4.88;;
59336;SDS011;45115;52.002;4.686;2023-05-10T07:28:48;8.52;;;4.88;;
59336;SDS011;45115;52.002;4.686;2023-05-10T07:31:14;8.70;;;4.90;;
59336;SDS011;45115;52.002;4.686;2023-05-10T07:33:41;9.73;;;5.03;;
59336;SDS011;45115;52.002;4.686;2023-05-10T07:36:08;8.77;;;4.70;;
59336;SDS011;45115;52.002;4.686;2023-05-10T07:38:35;8.95;;;4.68;;
59336;SDS011;45115;52.002;4.686;2023-05-10T07:41:03;10.00;;;4.80;;
59336;SDS011;45115;52.002;4.686;2023-05-10T07:43:29;7.60;;;4.30;;
59336;SDS011;45115;52.002;4.686;2023-05-10T07:45:56;8.63;;;4.43;;
59336;SDS011;45115;52.002;4.686;2023-05-10T07:48:24;8.43;;;4.22;;
59336;SDS011;45115;52.002;4.686;2023-05-10T07:50:51;8.30;;;3.97;;
59336;SDS011;45115;52.002;4.686;2023-05-10T07:53:18;25.65;;;10.13;;
59336;SDS011;45115;52.002;4.686;2023-05-10T07:55:49;11.77;;;5.03;;
59336;SDS011;45115;52.002;4.686;2023-05-10T07:58:18;9.18;;;4.93;;
59336;SDS011;45115;52.002;4.686;2023-05-10T08:00:44;9.85;;;5.30;;
59336;SDS011;45115;52.002;4.686;2023-05-10T08:03:11;10.95;;;5.30;;
59336;SDS011;45115;52.002;4.686;2023-05-10T08:05:37;11.25;;;5.05;;
59336;SDS011;45115;52.002;4.686;2023-05-10T08:08:04;10.27;;;5.20;;
59336;SDS011;45115;52.002;4.686;2023-05-10T08:10:31;12.55;;;6.13;;
59336;SDS011;45115;52.002;4.686;2023-05-10T08:12:57;13.25;;;5.93;;
59336;SDS011;45115;52.002;4.686;2023-05-10T08:15:27;11.50;;;5.28;;
59336;SDS011;45115;52.002;4.686;2023-05-10T08:17:53;10.95;;;5.75;;
59336;SDS011;45115;52.002;4.686;2023-05-10T08:20:20;9.65;;;5.15;;
59336;SDS011;45115;52.002;4.686;2023-05-10T08:22:47;12.80;;;5.55;;
59336;SDS011;45115;52.002;4.686;2023-05-10T08:25:14;11.95;;;5.63;;
59336;SDS011;45115;52.002;4.686;2023-05-10T08:27:41;9.65;;;4.72;;
59336;SDS011;45115;52.002;4.686;2023-05-10T08:30:08;9.52;;;4.82;;
59336;SDS011;45115;52.002;4.686;2023-05-10T08:32:37;11.93;;;5.60;;
59336;SDS011;45115;52.002;4.686;2023-05-10T08:35:04;9.50;;;4.90;;
59336;SDS011;45115;52.002;4.686;2023-05-10T08:37:31;10.60;;;4.85;;
59336;SDS011;45115;52.002;4.686;2023-05-10T08:39:58;10.15;;;4.97;;
59336;SDS011;45115;52.002;4.686;2023-05-10T08:42:25;9.45;;;4.50;;
59336;SDS011;45115;52.002;4.686;2023-05-10T08:44:54;13.18;;;6.18;;
59336;SDS011;45115;52.002;4.686;2023-05-10T08:47:23;13.32;;;5.78;;
59336;SDS011;45115;52.002;4.686;2023-05-10T08:49:52;12.45;;;5.88;;
59336;SDS011;45115;52.002;4.686;2023-05-10T08:52:20;14.57;;;5.70;;
59336;SDS011;45115;52.002;4.686;2023-05-10T08:54:49;13.05;;;5.72;;
59336;SDS011;45115;52.002;4.686;2023-05-10T08:57:16;15.10;;;6.72;;
59336;SDS011;45115;52.002;4.686;2023-05-10T08:59:43;12.80;;;5.97;;
59336;SDS011;45115;52.002;4.686;2023-05-10T09:02:10;11.98;;;5.68;;
59336;SDS011;45115;52.002;4.686;2023-05-10T09:04:39;12.40;;;6.05;;
59336;SDS011;45115;52.002;4.686;2023-05-10T09:07:07;11.25;;;5.63;;
59336;SDS011;45115;52.002;4.686;2023-05-10T09:09:34;10.02;;;5.13;;
59336;SDS011;45115;52.002;4.686;2023-05-10T09:12:02;8.95;;;4.70;;
59336;SDS011;45115;52.002;4.686;2023-05-10T09:14:29;12.88;;;5.78;;
59336;SDS011;45115;52.002;4.686;2023-05-10T09:17:00;9.25;;;5.03;;
59336;SDS011;45115;52.002;4.686;2023-05-10T09:19:27;11.30;;;5.78;;
59336;SDS011;45115;52.002;4.686;2023-05-10T09:21:54;12.20;;;5.68;;
59336;SDS011;45115;52.002;4.686;2023-05-10T09:24:22;11.63;;;5.43;;
59336;SDS011;45115;52.002;4.686;2023-05-10T09:26:51;10.65;;;4.95;;
59336;SDS011;45115;52.002;4.686;2023-05-10T09:29:18;12.23;;;4.68;;
59336;SDS011;45115;52.002;4.686;2023-05-10T09:31:45;11.20;;;4.53;;
59336;SDS011;45115;52.002;4.686;2023-05-10T09:34:16;10.77;;;5.18;;
59336;SDS011;45115;52.002;4.686;2023-05-10T09:36:53;10.85;;;4.68;;
59336;SDS011;45115;52.002;4.686;2023-05-10T09:39:30;7.13;;;3.92;;
59336;SDS011;45115;52.002;4.686;2023-05-10T09:41:58;8.43;;;3.80;;
59336;SDS011;45115;52.002;4.686;2023-05-10T09:44:26;7.85;;;4.30;;
59336;SDS011;45115;52.002;4.686;2023-05-10T09:46:53;7.28;;;3.65;;
59336;SDS011;45115;52.002;4.686;2023-05-10T09:49:20;9.10;;;4.50;;
59336;SDS011;45115;52.002;4.686;2023-05-10T09:51:46;12.13;;;5.07;;
59336;SDS011;45115;52.002;4.686;2023-05-10T09:54:14;13.18;;;5.13;;
59336;SDS011;45115;52.002;4.686;2023-05-10T09:56:43;9.10;;;4.88;;
59336;SDS011;45115;52.002;4.686;2023-05-10T09:59:10;10.00;;;5.32;;
59336;SDS011;45115;52.002;4.686;2023-05-10T10:01:38;11.13;;;4.80;;
59336;SDS011;45115;52.002;4.686;2023-05-10T10:04:06;8.40;;;4.90;;
59336;SDS011;45115;52.002;4.686;2023-05-10T10:06:36;10.82;;;4.60;;
59336;SDS011;45115;52.002;4.686;2023-05-10T10:57:28;8.05;;;4.97;;
59336;SDS011;45115;52.002;4.686;2023-05-10T11:02:48;7.57;;;4.55;;
59336;SDS011;45115;52.002;4.686;2023-05-10T11:05:22;12.68;;;5.78;;
59336;SDS011;45115;52.002;4.686;2023-05-10T11:08:08;11.18;;;5.70;;
59336;SDS011;45115;52.002;4.686;2023-05-10T11:10:39;12.88;;;6.00;;
59336;SDS011;45115;52.002;4.686;2023-05-10T11:13:26;13.00;;;6.13;;
59336;SDS011;45115;52.002;4.686;2023-05-10T11:15:55;12.15;;;6.30;;
59336;SDS011;45115;52.002;4.686;2023-05-10T11:18:24;13.43;;;6.18;;
59336;SDS011;45115;52.002;4.686;2023-05-10T11:20:52;12.70;;;6.40;;
59336;SDS011;45115;52.002;4.686;2023-05-10T11:23:31;13.25;;;6.07;;
59336;SDS011;45115;52.002;4.686;2023-05-10T11:25:59;14.38;;;6.40;;
59336;SDS011;45115;52.002;4.686;2023-05-10T11:28:27;10.13;;;5.80;;
59336;SDS011;45115;52.002;4.686;2023-05-10T11:30:54;10.75;;;5.85;;
59336;SDS011;45115;52.002;4.686;2023-05-10T11:33:21;12.57;;;6.15;;
59336;SDS011;45115;52.002;4.686;2023-05-10T11:35:48;11.93;;;5.70;;
59336;SDS011;45115;52.002;4.686;2023-05-10T11:38:15;7.68;;;5.05;;
59336;SDS011;45115;52.002;4.686;2023-05-10T11:40:41;8.95;;;4.90;;
59336;SDS011;45115;52.002;4.686;2023-05-10T11:43:08;12.15;;;6.93;;
59336;SDS011;45115;52.002;4.686;2023-05-10T11:45:37;10.48;;;5.85;;
59336;SDS011;45115;52.002;4.686;2023-05-10T11:48:06;11.95;;;6.10;;
59336;SDS011;45115;52.002;4.686;2023-05-10T11:50:33;10.90;;;5.70;;
59336;SDS011;45115;52.002;4.686;2023-05-10T11:53:00;8.95;;;5.57;;
59336;SDS011;45115;52.002;4.686;2023-05-10T11:55:26;9.73;;;5.85;;
59336;SDS011;45115;52.002;4.686;2023-05-10T11:57:55;11.70;;;5.75;;
59336;SDS011;45115;52.002;4.686;2023-05-10T12:02:53;9.70;;;5.22;;
59336;SDS011;45115;52.002;4.686;2023-05-10T12:05:20;12.68;;;6.18;;
59336;SDS011;45115;52.002;4.686;2023-05-10T12:07:47;10.85;;;5.82;;
59336;SDS011;45115;52.002;4.686;2023-05-10T12:10:14;14.40;;;7.35;;
59336;SDS011;45115;52.002;4.686;2023-05-10T12:12:43;12.82;;;6.90;;
59336;SDS011;45115;52.002;4.686;2023-05-10T12:15:13;15.13;;;7.43;;
59336;SDS011;45115;52.002;4.686;2023-05-10T12:17:44;13.88;;;7.00;;
59336;SDS011;45115;52.002;4.686;2023-05-10T12:20:20;12.70;;;6.68;;
59336;SDS011;45115;52.002;4.686;2023-05-10T12:22:52;12.35;;;6.22;;
59336;SDS011;45115;52.002;4.686;2023-05-10T12:25:20;13.50;;;6.82;;
59336;SDS011;45115;52.002;4.686;2023-05-10T12:27:48;12.30;;;6.43;;
59336;SDS011;45115;52.002;4.686;2023-05-10T12:30:18;11.52;;;5.68;;
59336;SDS011;45115;52.002;4.686;2023-05-10T12:32:47;12.05;;;5.30;;
59336;SDS011;45115;52.002;4.686;2023-05-10T12:35:13;9.80;;;5.25;;
59336;SDS011;45115;52.002;4.686;2023-05-10T12:37:42;8.45;;;4.78;;
59336;SDS011;45115;52.002;4.686;2023-05-10T12:40:10;9.60;;;5.20;;
59336;SDS011;45115;52.002;4.686;2023-05-10T12:42:37;9.73;;;4.88;;
59336;SDS011;45115;52.002;4.686;2023-05-10T12:45:05;10.68;;;4.93;;
59336;SDS011;45115;52.002;4.686;2023-05-10T12:47:33;11.00;;;5.47;;
59336;SDS011;45115;52.002;4.686;2023-05-10T12:50:01;9.32;;;4.80;;
59336;SDS011;45115;52.002;4.686;2023-05-10T12:52:29;10.13;;;4.82;;
59336;SDS011;45115;52.002;4.686;2023-05-10T12:54:58;9.90;;;5.50;;
59336;SDS011;45115;52.002;4.686;2023-05-10T12:57:25;11.00;;;4.65;;
59336;SDS011;45115;52.002;4.686;2023-05-10T12:59:52;9.13;;;4.78;;
59336;SDS011;45115;52.002;4.686;2023-05-10T13:02:19;9.23;;;4.50;;
59336;SDS011;45115;52.002;4.686;2023-05-10T13:04:48;12.88;;;5.45;;
59336;SDS011;45115;52.002;4.686;2023-05-10T13:07:15;11.55;;;5.40;;
59336;SDS011;45115;52.002;4.686;2023-05-10T13:09:41;12.10;;;5.68;;
59336;SDS011;45115;52.002;4.686;2023-05-10T13:12:09;11.05;;;4.97;;
59336;SDS011;45115;52.002;4.686;2023-05-10T13:14:36;11.38;;;4.82;;
59336;SDS011;45115;52.002;4.686;2023-05-10T13:17:03;13.30;;;5.50;;
59336;SDS011;45115;52.002;4.686;2023-05-10T13:19:29;11.65;;;5.57;;
59336;SDS011;45115;52.002;4.686;2023-05-10T13:21:56;12.15;;;5.60;;
59336;SDS011;45115;52.002;4.686;2023-05-10T13:24:23;10.48;;;5.78;;
59336;SDS011;45115;52.002;4.686;2023-05-10T13:26:49;11.75;;;5.60;;
59336;SDS011;45115;52.002;4.686;2023-05-10T13:29:17;11.82;;;5.60;;
59336;SDS011;45115;52.002;4.686;2023-05-10T13:31:44;12.18;;;5.90;;
59336;SDS011;45115;52.002;4.686;2023-05-10T13:34:10;10.60;;;5.60;;
59336;SDS011;45115;52.002;4.686;2023-05-10T13:36:37;13.52;;;5.80;;
59336;SDS011;45115;52.002;4.686;2023-05-10T13:39:04;13.30;;;6.32;;
59336;SDS011;45115;52.002;4.686;2023-05-10T13:41:30;11.63;;;5.20;;
59336;SDS011;45115;52.002;4.686;2023-05-10T13:43:57;12.20;;;5.57;;
59336;SDS011;45115;52.002;4.686;2023-05-10T13:46:26;11.70;;;5.82;;
59336;SDS011;45115;52.002;4.686;2023-05-10T13:48:53;13.00;;;6.07;;
59336;SDS011;45115;52.002;4.686;2023-05-10T13:51:19;12.95;;;6.15;;
59336;SDS011;45115;52.002;4.686;2023-05-10T13:53:46;12.90;;;5.70;;
59336;SDS011;45115;52.002;4.686;2023-05-10T13:56:13;10.52;;;5.25;;
59336;SDS011;45115;52.002;4.686;2023-05-10T13:58:39;10.40;;;5.10;;
59336;SDS011;45115;52.002;4.686;2023-05-10T14:01:07;10.60;;;4.63;;
59336;SDS011;45115;52.002;4.686;2023-05-10T14:03:35;10.82;;;5.25;;
59336;SDS011;45115;52.002;4.686;2023-05-10T14:06:02;10.63;;;4.88;;
59336;SDS011;45115;52.002;4.686;2023-05-10T14:08:28;8.02;;;4.57;;
59336;SDS011;45115;52.002;4.686;2023-05-10T14:10:55;8.80;;;4.63;;
59336;SDS011;45115;52.002;4.686;2023-05-10T14:13:23;10.60;;;5.15;;
59336;SDS011;45115;52.002;4.686;2023-05-10T14:15:50;11.25;;;4.95;;
59336;SDS011;45115;52.002;4.686;2023-05-10T14:18:16;10.57;;;5.18;;
59336;SDS011;45115;52.002;4.686;2023-05-10T14:20:44;11.50;;;5.47;;
59336;SDS011;45115;52.002;4.686;2023-05-10T14:23:11;10.27;;;5.38;;
59336;SDS011;45115;52.002;4.686;2023-05-10T14:25:39;10.93;;;5.30;;
59336;SDS011;45115;52.002;4.686;2023-05-10T14:28:06;10.15;;;5.43;;
59336;SDS011;45115;52.002;4.686;2023-05-10T14:30:32;10.50;;;5.45;;
59336;SDS011;45115;52.002;4.686;2023-05-10T14:32:59;9.50;;;5.47;;
59336;SDS011;45115;52.002;4.686;2023-05-10T14:35:26;10.27;;;5.30;;
59336;SDS011;45115;52.002;4.686;2023-05-10T14:37:54;10.75;;;5.20;;
59336;SDS011;45115;52.002;4.686;2023-05-10T14:40:21;10.55;;;5.35;;
59336;SDS011;45115;52.002;4.686;2023-05-10T14:42:47;9.07;;;4.90;;
59336;SDS011;45115;52.002;4.686;2023-05-10T14:45:14;9.52;;;4.90;;
59336;SDS011;45115;52.002;4.686;2023-05-10T14:47:41;9.20;;;5.10;;
59336;SDS011;45115;52.002;4.686;2023-05-10T14:50:08;8.30;;;4.45;;
59336;SDS011;45115;52.002;4.686;2023-05-10T14:52:34;8.13;;;4.28;;
59336;SDS011;45115;52.002;4.686;2023-05-10T14:55:03;10.43;;;4.68;;
59336;SDS011;45115;52.002;4.686;2023-05-10T14:57:30;7.82;;;4.90;;
59336;SDS011;45115;52.002;4.686;2023-05-10T14:59:57;7.65;;;4.28;;
59336;SDS011;45115;52.002;4.686;2023-05-10T15:02:24;10.18;;;4.75;;
59336;SDS011;45115;52.002;4.686;2023-05-10T15:04:50;9.07;;;4.55;;
59336;SDS011;45115;52.002;4.686;2023-05-10T15:07:17;8.32;;;4.38;;
59336;SDS011;45115;52.002;4.686;2023-05-10T15:09:44;10.93;;;5.55;;
59336;SDS011;45115;52.002;4.686;2023-05-10T15:12:12;8.77;;;4.93;;
59336;SDS011;45115;52.002;4.686;2023-05-10T15:14:38;9.65;;;5.15;;
59336;SDS011;45115;52.002;4.686;2023-05-10T15:17:05;9.07;;;5.32;;
59336;SDS011;45115;52.002;4.686;2023-05-10T15:19:32;10.20;;;5.40;;
59336;SDS011;45115;52.002;4.686;2023-05-10T15:21:59;9.88;;;5.53;;
59336;SDS011;45115;52.002;4.686;2023-05-10T15:24:26;10.32;;;5.32;;
59336;SDS011;45115;52.002;4.686;2023-05-10T15:26:53;8.68;;;4.55;;
59336;SDS011;45115;52.002;4.686;2023-05-10T15:29:20;10.20;;;4.63;;
59336;SDS011;45115;52.002;4.686;2023-05-10T15:31:48;10.35;;;4.45;;
59336;SDS011;45115;52.002;4.686;2023-05-10T15:34:15;8.30;;;4.70;;